Aérodrome :
LOGIN :

S'inscrire | Disclaimer

   EN    FR    IT 

 










Légende :    VFR   VFR Marginal   IFR   IFR Intensif   IFR Très Intensif
Visi : 
Plafond : 
>= 8 km
>= 3000ft
5 à 8 km
1000 à 3000 ft
1500m à 5 km
500 à 1000 ft
800 à 1500m
200 à 500 ft
< 800m
< 200 ft
Symboles :   Orages  Brouillard  Fortes neiges  Fortes précipitations  Vent > 20 kt
SIGMETs :   Divers  Orages  Givrage  Turbulence  Onde Orograph.  Cendres Volcan.







- Altitude de l'aérodrome : 574 ft
- Code IATA : NDR


GMMW - Nador El Aroui

DERNIER METAR :
  • 201500Z 05012KT 9999 FEW030 21/11 Q1012 NOSIG

METARs EXPIRÉS :
  • 201400Z 05010KT 010V070 9999 FEW030 22/11 Q1013 NOSIG
  • 201300Z 04009KT 310V090 9999 SCT030 22/11 Q1013 NOSIG

TAF TAF GMMW
Valide du 20 à 12h jusqu'au 21 à 18h UTC


201100Z 2012/2118 04008KT 9999 SCT030
PROB30 2023/2106 VRB02KT 4000 BR BKN010
BECMG 2110/2112 CAVOK
Pas de NOTAMs connus pour ce terrain.
2 SIGMETs publiés pour la FIR Casablanca (GMMM) :
 
Orages noyés dans la masse
GMMM SIGMET A1 VALID 201450/201830 GMMC
GMMM CASABLANCA FIR EMBD TS OBS WI N3525 W00503 - N3440 W00403 - N35 16 W00538 - N3525 W00503 TOP FL320 STNR NC=
Orages noyés dans la masse
GMMM SIGMET 02 VALID 201518/201900 GMMC
GMMM CASABLANCA FIR EMBD TS OBS SE OF LINE N3212 W00246 - N3258 W006 22 - N3011 W00734 TOP FL405 MOV E NC=



MET'MAP, la Météo Aéronautique d'un coup d'oeil ! - Copyright ORBIFLY Décembre 2007 - Disclaimer

ORBIFLY MET'MAP TEAM :

Programmation & Développement : Alexandra Zaïnal
Conception & Développement : Baudouin d'Aumeries
Co-Programmation & Développement : Marc-Olivier Méhu
Soutien technique & logistique : Manuel Goepfert

Contact : metmap@orbifly.com




SOURCES & CREDITS :

   NOAA